Lochearnhead, United Kingdom
Current Conditions -  °F | °C
As of 1:20 AM on Friday 28 Nov 2014 (Local Time) from EGPF Reporting Station
Haze Haze  
Wind Chill:   Ceiling: 2000
Heat Index:   Visibility: 2mi
Dew Point:   Wind: 3mph
Humidity: 100%   Direction: 110°ESE
Pressure: 29.62"   Gusts: NA
Location:  56.39°N, 4.29°W
Report Text: EGPF 280120Z AUTO 11003KT 3300 BR OVC020 06/06 Q1003
Loading
Personal Weather Stations






























Interactive Weather Map New forecast layout! Learn more

10-Day Weather Forecast

Advertisements
Track Severe Weather on mobile